sensor_id;sensor_type;location;lat;lon;timestamp;temperature;humidity
6018;DHT22;3037;51.068;13.780;2022-12-29T00:00:06;8.40;99.90
6018;DHT22;3037;51.068;13.780;2022-12-29T00:02:32;8.40;99.90
6018;DHT22;3037;51.068;13.780;2022-12-29T00:04:58;8.40;99.90
6018;DHT22;3037;51.068;13.780;2022-12-29T00:07:23;8.50;99.90
6018;DHT22;3037;51.068;13.780;2022-12-29T00:09:48;8.50;99.90
6018;DHT22;3037;51.068;13.780;2022-12-29T00:12:14;8.50;99.90
6018;DHT22;3037;51.068;13.780;2022-12-29T00:14:40;8.60;99.90
6018;DHT22;3037;51.068;13.780;2022-12-29T00:17:24;8.60;99.90
6018;DHT22;3037;51.068;13.780;2022-12-29T00:19:49;8.60;99.90
6018;DHT22;3037;51.068;13.780;2022-12-29T00:22:33;8.70;99.90
6018;DHT22;3037;51.068;13.780;2022-12-29T00:25:17;8.80;99.90
6018;DHT22;3037;51.068;13.780;2022-12-29T00:28:02;8.80;99.90
6018;DHT22;3037;51.068;13.780;2022-12-29T00:30:45;8.90;99.90
6018;DHT22;3037;51.068;13.780;2022-12-29T00:33:31;9.00;99.90
6018;DHT22;3037;51.068;13.780;2022-12-29T00:36:35;9.20;99.90
6018;DHT22;3037;51.068;13.780;2022-12-29T00:39:12;9.40;98.60
6018;DHT22;3037;51.068;13.780;2022-12-29T00:42:02;9.60;97.30
6018;DHT22;3037;51.068;13.780;2022-12-29T00:44:46;9.60;97.10
6018;DHT22;3037;51.068;13.780;2022-12-29T00:47:11;9.90;94.50
6018;DHT22;3037;51.068;13.780;2022-12-29T00:49:37;10.00;93.50
6018;DHT22;3037;51.068;13.780;2022-12-29T00:52:08;10.10;92.00
6018;DHT22;3037;51.068;13.780;2022-12-29T00:54:36;10.10;91.40
6018;DHT22;3037;51.068;13.780;2022-12-29T00:57:04;10.20;90.50
6018;DHT22;3037;51.068;13.780;2022-12-29T00:59:30;10.40;90.70
6018;DHT22;3037;51.068;13.780;2022-12-29T01:01:56;10.40;90.90
6018;DHT22;3037;51.068;13.780;2022-12-29T01:04:23;10.40;91.50
6018;DHT22;3037;51.068;13.780;2022-12-29T01:06:49;10.40;92.30
6018;DHT22;3037;51.068;13.780;2022-12-29T01:09:16;10.40;94.00
6018;DHT22;3037;51.068;13.780;2022-12-29T01:12:00;10.30;95.50
6018;DHT22;3037;51.068;13.780;2022-12-29T01:14:26;10.40;96.30
6018;DHT22;3037;51.068;13.780;2022-12-29T01:16:53;10.40;97.10
6018;DHT22;3037;51.068;13.780;2022-12-29T01:19:19;10.30;98.90
6018;DHT22;3037;51.068;13.780;2022-12-29T01:21:46;10.30;99.90
6018;DHT22;3037;51.068;13.780;2022-12-29T01:24:12;10.30;99.70
6018;DHT22;3037;51.068;13.780;2022-12-29T01:26:37;10.30;99.90
6018;DHT22;3037;51.068;13.780;2022-12-29T01:29:03;10.20;99.90
6018;DHT22;3037;51.068;13.780;2022-12-29T01:31:29;10.20;99.90
6018;DHT22;3037;51.068;13.780;2022-12-29T01:33:54;10.20;99.90
6018;DHT22;3037;51.068;13.780;2022-12-29T01:36:20;10.10;99.90
6018;DHT22;3037;51.068;13.780;2022-12-29T01:38:45;10.00;99.90
6018;DHT22;3037;51.068;13.780;2022-12-29T01:41:13;9.60;99.90
6018;DHT22;3037;51.068;13.780;2022-12-29T01:48:48;9.10;99.90
6018;DHT22;3037;51.068;13.780;2022-12-29T01:51:15;9.10;99.90
6018;DHT22;3037;51.068;13.780;2022-12-29T01:53:42;9.10;99.90
6018;DHT22;3037;51.068;13.780;2022-12-29T01:56:12;9.00;99.90
6018;DHT22;3037;51.068;13.780;2022-12-29T01:58:41;8.90;99.90
6018;DHT22;3037;51.068;13.780;2022-12-29T02:01:10;8.80;99.90
6018;DHT22;3037;51.068;13.780;2022-12-29T02:03:36;8.80;99.90
6018;DHT22;3037;51.068;13.780;2022-12-29T02:08:30;8.80;99.90
6018;DHT22;3037;51.068;13.780;2022-12-29T02:10:56;8.80;99.90
6018;DHT22;3037;51.068;13.780;2022-12-29T02:13:30;8.70;99.90
6018;DHT22;3037;51.068;13.780;2022-12-29T02:16:29;8.70;99.90
6018;DHT22;3037;51.068;13.780;2022-12-29T02:24:53;8.70;99.90
6018;DHT22;3037;51.068;13.780;2022-12-29T02:27:35;8.80;99.90
6018;DHT22;3037;51.068;13.780;2022-12-29T02:30:12;8.80;99.90
6018;DHT22;3037;51.068;13.780;2022-12-29T02:32:49;8.90;99.90
6018;DHT22;3037;51.068;13.780;2022-12-29T02:35:41;8.90;99.90
6018;DHT22;3037;51.068;13.780;2022-12-29T02:41:29;8.80;99.90
6018;DHT22;3037;51.068;13.780;2022-12-29T02:43:59;8.80;99.90
6018;DHT22;3037;51.068;13.780;2022-12-29T02:46:51;9.00;99.90
6018;DHT22;3037;51.068;13.780;2022-12-29T02:49:22;9.10;99.90
6018;DHT22;3037;51.068;13.780;2022-12-29T02:52:06;9.00;99.90
6018;DHT22;3037;51.068;13.780;2022-12-29T02:54:32;9.10;99.90
6018;DHT22;3037;51.068;13.780;2022-12-29T02:57:27;9.20;99.90
6018;DHT22;3037;51.068;13.780;2022-12-29T02:59:59;9.20;99.90
6018;DHT22;3037;51.068;13.780;2022-12-29T03:05:14;9.30;99.90
6018;DHT22;3037;51.068;13.780;2022-12-29T03:11:09;9.50;99.90
6018;DHT22;3037;51.068;13.780;2022-12-29T03:14:11;9.70;99.90
6018;DHT22;3037;51.068;13.780;2022-12-29T03:17:01;9.70;99.90
6018;DHT22;3037;51.068;13.780;2022-12-29T03:19:34;9.70;99.90
6018;DHT22;3037;51.068;13.780;2022-12-29T03:22:10;9.80;99.90
6018;DHT22;3037;51.068;13.780;2022-12-29T03:24:55;9.80;99.90
6018;DHT22;3037;51.068;13.780;2022-12-29T03:27:44;9.90;99.90
6018;DHT22;3037;51.068;13.780;2022-12-29T03:30:12;10.10;99.90
6018;DHT22;3037;51.068;13.780;2022-12-29T03:32:47;10.30;99.90
6018;DHT22;3037;51.068;13.780;2022-12-29T03:35:17;10.60;99.90
6018;DHT22;3037;51.068;13.780;2022-12-29T03:37:51;10.60;99.90
6018;DHT22;3037;51.068;13.780;2022-12-29T03:40:19;10.80;99.90
6018;DHT22;3037;51.068;13.780;2022-12-29T03:42:47;10.70;99.90
6018;DHT22;3037;51.068;13.780;2022-12-29T03:45:13;10.80;99.90
6018;DHT22;3037;51.068;13.780;2022-12-29T03:47:39;10.70;99.90
6018;DHT22;3037;51.068;13.780;2022-12-29T03:50:05;10.60;99.90
6018;DHT22;3037;51.068;13.780;2022-12-29T03:52:31;10.50;99.90
6018;DHT22;3037;51.068;13.780;2022-12-29T03:54:56;10.30;99.90
6018;DHT22;3037;51.068;13.780;2022-12-29T03:57:22;10.20;99.90
6018;DHT22;3037;51.068;13.780;2022-12-29T03:59:47;10.10;99.90
6018;DHT22;3037;51.068;13.780;2022-12-29T04:02:13;10.00;99.90
6018;DHT22;3037;51.068;13.780;2022-12-29T04:04:38;10.10;99.90
6018;DHT22;3037;51.068;13.780;2022-12-29T04:07:04;10.00;99.90
6018;DHT22;3037;51.068;13.780;2022-12-29T04:09:29;10.00;99.90
6018;DHT22;3037;51.068;13.780;2022-12-29T04:11:56;10.00;99.90
6018;DHT22;3037;51.068;13.780;2022-12-29T04:14:22;10.00;99.90
6018;DHT22;3037;51.068;13.780;2022-12-29T04:16:47;10.00;99.90
6018;DHT22;3037;51.068;13.780;2022-12-29T04:19:13;10.10;99.90
6018;DHT22;3037;51.068;13.780;2022-12-29T04:21:38;10.10;99.90
6018;DHT22;3037;51.068;13.780;2022-12-29T04:24:05;10.10;99.90
6018;DHT22;3037;51.068;13.780;2022-12-29T04:26:32;10.00;99.90
6018;DHT22;3037;51.068;13.780;2022-12-29T04:28:57;10.20;99.90
6018;DHT22;3037;51.068;13.780;2022-12-29T04:31:23;10.10;99.90
6018;DHT22;3037;51.068;13.780;2022-12-29T04:33:48;10.10;99.90
6018;DHT22;3037;51.068;13.780;2022-12-29T04:36:14;10.30;99.90
6018;DHT22;3037;51.068;13.780;2022-12-29T04:38:39;10.30;99.90
6018;DHT22;3037;51.068;13.780;2022-12-29T04:41:05;10.40;99.90
6018;DHT22;3037;51.068;13.780;2022-12-29T04:43:30;10.40;99.90
6018;DHT22;3037;51.068;13.780;2022-12-29T04:45:56;10.60;99.90
6018;DHT22;3037;51.068;13.780;2022-12-29T04:48:21;10.50;99.90
6018;DHT22;3037;51.068;13.780;2022-12-29T04:50:48;10.60;99.90
6018;DHT22;3037;51.068;13.780;2022-12-29T04:53:14;10.60;99.90
6018;DHT22;3037;51.068;13.780;2022-12-29T04:55:39;10.60;99.90
6018;DHT22;3037;51.068;13.780;2022-12-29T04:58:05;10.50;99.90
6018;DHT22;3037;51.068;13.780;2022-12-29T05:00:30;10.50;99.90
6018;DHT22;3037;51.068;13.780;2022-12-29T05:02:55;10.50;99.90
6018;DHT22;3037;51.068;13.780;2022-12-29T05:05:21;10.40;99.90
6018;DHT22;3037;51.068;13.780;2022-12-29T05:07:46;10.40;99.90
6018;DHT22;3037;51.068;13.780;2022-12-29T05:10:12;10.40;99.90
6018;DHT22;3037;51.068;13.780;2022-12-29T05:12:38;10.30;99.90
6018;DHT22;3037;51.068;13.780;2022-12-29T05:15:05;10.40;99.90
6018;DHT22;3037;51.068;13.780;2022-12-29T05:17:31;10.40;99.90
6018;DHT22;3037;51.068;13.780;2022-12-29T05:19:56;10.60;99.90
6018;DHT22;3037;51.068;13.780;2022-12-29T05:22:22;10.70;99.90
6018;DHT22;3037;51.068;13.780;2022-12-29T05:24:48;10.60;99.90
6018;DHT22;3037;51.068;13.780;2022-12-29T05:27:13;10.80;99.90
6018;DHT22;3037;51.068;13.780;2022-12-29T05:29:39;10.80;99.90
6018;DHT22;3037;51.068;13.780;2022-12-29T05:32:04;10.90;99.90
6018;DHT22;3037;51.068;13.780;2022-12-29T05:34:30;10.80;99.90
6018;DHT22;3037;51.068;13.780;2022-12-29T05:36:55;10.90;99.90
6018;DHT22;3037;51.068;13.780;2022-12-29T05:39:20;10.90;99.90
6018;DHT22;3037;51.068;13.780;2022-12-29T05:41:46;10.90;99.90
6018;DHT22;3037;51.068;13.780;2022-12-29T05:44:12;11.00;99.90
6018;DHT22;3037;51.068;13.780;2022-12-29T05:46:38;11.00;99.90
6018;DHT22;3037;51.068;13.780;2022-12-29T05:49:05;11.10;99.90
6018;DHT22;3037;51.068;13.780;2022-12-29T05:51:30;11.10;99.90
6018;DHT22;3037;51.068;13.780;2022-12-29T05:53:56;11.00;99.90
6018;DHT22;3037;51.068;13.780;2022-12-29T05:56:21;11.00;99.90
6018;DHT22;3037;51.068;13.780;2022-12-29T05:58:47;11.00;99.90
6018;DHT22;3037;51.068;13.780;2022-12-29T06:01:13;11.00;99.90
6018;DHT22;3037;51.068;13.780;2022-12-29T06:03:38;11.00;99.90
6018;DHT22;3037;51.068;13.780;2022-12-29T06:06:04;11.00;99.90
6018;DHT22;3037;51.068;13.780;2022-12-29T06:08:30;11.00;99.90
6018;DHT22;3037;51.068;13.780;2022-12-29T06:10:55;10.90;99.90
6018;DHT22;3037;51.068;13.780;2022-12-29T06:13:21;10.80;99.90
6018;DHT22;3037;51.068;13.780;2022-12-29T06:15:48;10.90;99.90
6018;DHT22;3037;51.068;13.780;2022-12-29T06:18:14;10.90;99.90
6018;DHT22;3037;51.068;13.780;2022-12-29T06:20:39;10.90;99.90
6018;DHT22;3037;51.068;13.780;2022-12-29T06:23:05;10.90;99.90
6018;DHT22;3037;51.068;13.780;2022-12-29T06:25:31;10.90;99.90
6018;DHT22;3037;51.068;13.780;2022-12-29T06:27:57;11.10;99.90
6018;DHT22;3037;51.068;13.780;2022-12-29T06:30:23;11.10;99.90
6018;DHT22;3037;51.068;13.780;2022-12-29T06:32:48;11.10;99.90
6018;DHT22;3037;51.068;13.780;2022-12-29T06:35:14;11.30;99.90
6018;DHT22;3037;51.068;13.780;2022-12-29T06:37:40;11.30;99.90
6018;DHT22;3037;51.068;13.780;2022-12-29T06:40:05;11.20;99.90
6018;DHT22;3037;51.068;13.780;2022-12-29T06:42:31;11.20;99.90
6018;DHT22;3037;51.068;13.780;2022-12-29T06:44:56;11.20;99.90
6018;DHT22;3037;51.068;13.780;2022-12-29T06:47:24;11.10;99.90
6018;DHT22;3037;51.068;13.780;2022-12-29T06:49:49;11.00;99.90
6018;DHT22;3037;51.068;13.780;2022-12-29T06:52:15;10.90;99.90
6018;DHT22;3037;51.068;13.780;2022-12-29T06:54:40;10.80;99.90
6018;DHT22;3037;51.068;13.780;2022-12-29T06:57:06;10.80;99.90
6018;DHT22;3037;51.068;13.780;2022-12-29T06:59:31;10.80;99.90
6018;DHT22;3037;51.068;13.780;2022-12-29T07:01:57;10.80;99.90
6018;DHT22;3037;51.068;13.780;2022-12-29T07:04:22;10.80;99.90
6018;DHT22;3037;51.068;13.780;2022-12-29T07:06:48;10.80;99.90
6018;DHT22;3037;51.068;13.780;2022-12-29T07:09:13;10.80;99.90
6018;DHT22;3037;51.068;13.780;2022-12-29T07:11:39;10.80;99.90
6018;DHT22;3037;51.068;13.780;2022-12-29T07:14:04;10.70;99.90
6018;DHT22;3037;51.068;13.780;2022-12-29T07:16:31;10.60;99.90
6018;DHT22;3037;51.068;13.780;2022-12-29T07:18:56;10.60;99.90
6018;DHT22;3037;51.068;13.780;2022-12-29T07:21:22;10.60;99.90
6018;DHT22;3037;51.068;13.780;2022-12-29T07:23:48;10.60;99.90
6018;DHT22;3037;51.068;13.780;2022-12-29T07:26:14;10.70;99.90
6018;DHT22;3037;51.068;13.780;2022-12-29T07:28:40;10.70;99.90
6018;DHT22;3037;51.068;13.780;2022-12-29T07:31:14;10.70;99.90
6018;DHT22;3037;51.068;13.780;2022-12-29T07:33:40;10.70;99.90
6018;DHT22;3037;51.068;13.780;2022-12-29T07:36:06;10.70;99.90
6018;DHT22;3037;51.068;13.780;2022-12-29T07:38:32;11.00;99.90
6018;DHT22;3037;51.068;13.780;2022-12-29T07:40:58;11.20;99.90
6018;DHT22;3037;51.068;13.780;2022-12-29T07:43:23;11.30;99.90
6018;DHT22;3037;51.068;13.780;2022-12-29T07:45:49;11.40;99.90
6018;DHT22;3037;51.068;13.780;2022-12-29T07:48:14;11.40;99.90
6018;DHT22;3037;51.068;13.780;2022-12-29T07:50:40;11.30;99.90
6018;DHT22;3037;51.068;13.780;2022-12-29T07:53:05;11.50;99.90
6018;DHT22;3037;51.068;13.780;2022-12-29T07:55:31;11.60;99.90
6018;DHT22;3037;51.068;13.780;2022-12-29T07:57:56;11.60;99.90
6018;DHT22;3037;51.068;13.780;2022-12-29T08:00:22;11.80;99.90
6018;DHT22;3037;51.068;13.780;2022-12-29T08:02:48;11.90;99.90
6018;DHT22;3037;51.068;13.780;2022-12-29T08:05:14;11.80;97.90
6018;DHT22;3037;51.068;13.780;2022-12-29T08:07:42;11.20;97.90
6018;DHT22;3037;51.068;13.780;2022-12-29T08:10:09;10.80;99.70
6018;DHT22;3037;51.068;13.780;2022-12-29T08:12:34;11.10;99.00
6018;DHT22;3037;51.068;13.780;2022-12-29T08:15:00;11.40;97.10
6018;DHT22;3037;51.068;13.780;2022-12-29T08:17:25;11.40;97.00
6018;DHT22;3037;51.068;13.780;2022-12-29T08:19:51;11.90;95.90
6018;DHT22;3037;51.068;13.780;2022-12-29T08:22:16;12.90;90.60
6018;DHT22;3037;51.068;13.780;2022-12-29T08:24:41;13.10;84.20
6018;DHT22;3037;51.068;13.780;2022-12-29T08:27:07;12.90;83.20
6018;DHT22;3037;51.068;13.780;2022-12-29T08:29:32;12.90;84.10
6018;DHT22;3037;51.068;13.780;2022-12-29T08:31:58;12.90;78.80
6018;DHT22;3037;51.068;13.780;2022-12-29T08:34:23;12.90;77.90
6018;DHT22;3037;51.068;13.780;2022-12-29T08:36:49;13.00;78.00
6018;DHT22;3037;51.068;13.780;2022-12-29T08:39:14;13.70;70.20
6018;DHT22;3037;51.068;13.780;2022-12-29T08:41:40;13.70;63.40
6018;DHT22;3037;51.068;13.780;2022-12-29T08:44:06;13.60;68.60
6018;DHT22;3037;51.068;13.780;2022-12-29T08:46:31;13.70;64.60
6018;DHT22;3037;51.068;13.780;2022-12-29T08:48:57;13.50;64.50
6018;DHT22;3037;51.068;13.780;2022-12-29T08:51:22;13.50;62.20
6018;DHT22;3037;51.068;13.780;2022-12-29T08:53:48;13.60;65.30
6018;DHT22;3037;51.068;13.780;2022-12-29T08:56:14;13.50;67.70
6018;DHT22;3037;51.068;13.780;2022-12-29T08:58:39;13.60;62.80
6018;DHT22;3037;51.068;13.780;2022-12-29T09:01:06;13.00;65.70
6018;DHT22;3037;51.068;13.780;2022-12-29T09:03:31;13.30;65.90
6018;DHT22;3037;51.068;13.780;2022-12-29T09:05:57;13.20;64.90
6018;DHT22;3037;51.068;13.780;2022-12-29T09:08:22;12.50;72.10
6018;DHT22;3037;51.068;13.780;2022-12-29T09:10:49;12.20;74.90
6018;DHT22;3037;51.068;13.780;2022-12-29T09:13:15;12.10;79.30
6018;DHT22;3037;51.068;13.780;2022-12-29T09:15:41;12.10;80.50
6018;DHT22;3037;51.068;13.780;2022-12-29T09:18:07;12.40;78.70
6018;DHT22;3037;51.068;13.780;2022-12-29T09:20:33;12.60;76.80
6018;DHT22;3037;51.068;13.780;2022-12-29T09:22:59;12.70;76.20
6018;DHT22;3037;51.068;13.780;2022-12-29T09:25:25;12.90;74.30
6018;DHT22;3037;51.068;13.780;2022-12-29T09:27:51;13.00;72.50
6018;DHT22;3037;51.068;13.780;2022-12-29T09:30:19;13.20;71.20
6018;DHT22;3037;51.068;13.780;2022-12-29T09:32:46;13.10;71.60
6018;DHT22;3037;51.068;13.780;2022-12-29T09:35:12;13.10;70.60
6018;DHT22;3037;51.068;13.780;2022-12-29T09:37:38;13.10;71.90
6018;DHT22;3037;51.068;13.780;2022-12-29T09:40:05;13.30;69.40
6018;DHT22;3037;51.068;13.780;2022-12-29T09:42:38;13.20;70.00
6018;DHT22;3037;51.068;13.780;2022-12-29T09:45:15;13.20;69.80
6018;DHT22;3037;51.068;13.780;2022-12-29T09:47:45;13.30;71.10
6018;DHT22;3037;51.068;13.780;2022-12-29T09:53:14;14.20;60.00
6018;DHT22;3037;51.068;13.780;2022-12-29T09:55:49;15.30;48.20
6018;DHT22;3037;51.068;13.780;2022-12-29T09:58:30;16.20;37.90
6018;DHT22;3037;51.068;13.780;2022-12-29T10:01:16;18.60;15.00
6018;DHT22;3037;51.068;13.780;2022-12-29T10:03:51;20.20;1.00
6018;DHT22;3037;51.068;13.780;2022-12-29T10:06:24;19.30;1.00
6018;DHT22;3037;51.068;13.780;2022-12-29T10:09:06;21.20;1.00
6018;DHT22;3037;51.068;13.780;2022-12-29T10:12:09;23.10;1.00
6018;DHT22;3037;51.068;13.780;2022-12-29T10:15:03;22.50;1.00
6018;DHT22;3037;51.068;13.780;2022-12-29T10:23:22;20.50;1.00
6018;DHT22;3037;51.068;13.780;2022-12-29T10:25:56;22.30;1.00
6018;DHT22;3037;51.068;13.780;2022-12-29T10:28:26;23.00;1.00
6018;DHT22;3037;51.068;13.780;2022-12-29T10:30:55;23.70;1.00
6018;DHT22;3037;51.068;13.780;2022-12-29T10:33:30;25.00;1.00
6018;DHT22;3037;51.068;13.780;2022-12-29T10:35:57;23.10;1.00
6018;DHT22;3037;51.068;13.780;2022-12-29T10:38:37;22.30;1.00
6018;DHT22;3037;51.068;13.780;2022-12-29T10:41:23;22.40;1.00
6018;DHT22;3037;51.068;13.780;2022-12-29T10:43:53;22.60;1.00
6018;DHT22;3037;51.068;13.780;2022-12-29T10:46:27;23.70;1.00
6018;DHT22;3037;51.068;13.780;2022-12-29T10:48:54;23.50;1.00
6018;DHT22;3037;51.068;13.780;2022-12-29T10:51:26;21.00;1.00
6018;DHT22;3037;51.068;13.780;2022-12-29T10:53:57;22.60;1.00
6018;DHT22;3037;51.068;13.780;2022-12-29T10:59:04;20.80;1.00
6018;DHT22;3037;51.068;13.780;2022-12-29T11:01:37;22.10;1.00
6018;DHT22;3037;51.068;13.780;2022-12-29T11:04:22;24.00;1.00
6018;DHT22;3037;51.068;13.780;2022-12-29T11:06:51;23.70;1.00
6018;DHT22;3037;51.068;13.780;2022-12-29T11:09:27;23.00;1.00
6018;DHT22;3037;51.068;13.780;2022-12-29T11:11:53;24.10;1.00
6018;DHT22;3037;51.068;13.780;2022-12-29T11:14:30;24.20;1.00
6018;DHT22;3037;51.068;13.780;2022-12-29T11:17:01;22.20;1.00
6018;DHT22;3037;51.068;13.780;2022-12-29T11:19:30;20.10;1.00
6018;DHT22;3037;51.068;13.780;2022-12-29T11:22:38;18.50;1.00
6018;DHT22;3037;51.068;13.780;2022-12-29T11:25:12;17.20;1.00
6018;DHT22;3037;51.068;13.780;2022-12-29T11:27:38;16.90;1.00
6018;DHT22;3037;51.068;13.780;2022-12-29T11:30:26;16.40;1.00
6018;DHT22;3037;51.068;13.780;2022-12-29T11:32:53;15.50;1.00
6018;DHT22;3037;51.068;13.780;2022-12-29T11:35:31;15.40;1.00
6018;DHT22;3037;51.068;13.780;2022-12-29T11:40:26;15.20;1.00
6018;DHT22;3037;51.068;13.780;2022-12-29T11:42:54;15.30;1.00
6018;DHT22;3037;51.068;13.780;2022-12-29T11:45:29;15.30;1.00
6018;DHT22;3037;51.068;13.780;2022-12-29T11:48:01;15.20;1.00
6018;DHT22;3037;51.068;13.780;2022-12-29T11:50:33;15.10;1.00
6018;DHT22;3037;51.068;13.780;2022-12-29T11:53:23;15.80;1.00
6018;DHT22;3037;51.068;13.780;2022-12-29T11:55:58;15.70;1.00
6018;DHT22;3037;51.068;13.780;2022-12-29T11:58:33;15.80;1.00
6018;DHT22;3037;51.068;13.780;2022-12-29T12:01:17;15.70;1.00
6018;DHT22;3037;51.068;13.780;2022-12-29T12:03:54;15.50;1.00
6018;DHT22;3037;51.068;13.780;2022-12-29T12:06:21;15.10;1.00
6018;DHT22;3037;51.068;13.780;2022-12-29T12:08:55;14.90;1.00
6018;DHT22;3037;51.068;13.780;2022-12-29T12:11:28;14.80;1.10
6018;DHT22;3037;51.068;13.780;2022-12-29T12:14:21;14.70;2.70
6018;DHT22;3037;51.068;13.780;2022-12-29T12:17:22;14.50;7.20
6018;DHT22;3037;51.068;13.780;2022-12-29T12:20:14;14.30;10.30
6018;DHT22;3037;51.068;13.780;2022-12-29T12:22:46;14.30;12.40
6018;DHT22;3037;51.068;13.780;2022-12-29T12:25:23;14.30;15.50
6018;DHT22;3037;51.068;13.780;2022-12-29T12:28:10;14.20;17.00
6018;DHT22;3037;51.068;13.780;2022-12-29T12:30:47;14.30;18.40
6018;DHT22;3037;51.068;13.780;2022-12-29T12:33:32;14.30;18.10
6018;DHT22;3037;51.068;13.780;2022-12-29T12:36:24;14.40;18.80
6018;DHT22;3037;51.068;13.780;2022-12-29T12:39:07;14.40;17.70
6018;DHT22;3037;51.068;13.780;2022-12-29T12:42:14;14.50;18.30
6018;DHT22;3037;51.068;13.780;2022-12-29T12:47:58;14.70;16.50
6018;DHT22;3037;51.068;13.780;2022-12-29T12:50:45;14.80;14.70
6018;DHT22;3037;51.068;13.780;2022-12-29T12:53:24;14.70;17.50
6018;DHT22;3037;51.068;13.780;2022-12-29T12:56:18;14.70;15.00
6018;DHT22;3037;51.068;13.780;2022-12-29T12:58:52;14.70;15.80
6018;DHT22;3037;51.068;13.780;2022-12-29T13:04:12;14.60;16.20
6018;DHT22;3037;51.068;13.780;2022-12-29T13:09:21;14.60;15.40
6018;DHT22;3037;51.068;13.780;2022-12-29T13:12:05;14.50;16.00
6018;DHT22;3037;51.068;13.780;2022-12-29T13:14:58;14.50;16.70
6018;DHT22;3037;51.068;13.780;2022-12-29T13:17:33;14.70;14.80
6018;DHT22;3037;51.068;13.780;2022-12-29T13:20:28;15.10;11.90
6018;DHT22;3037;51.068;13.780;2022-12-29T13:28:38;15.40;6.50
6018;DHT22;3037;51.068;13.780;2022-12-29T13:34:09;15.20;6.60
6018;DHT22;3037;51.068;13.780;2022-12-29T13:36:44;15.10;7.40
6018;DHT22;3037;51.068;13.780;2022-12-29T13:39:19;14.90;7.90
6018;DHT22;3037;51.068;13.780;2022-12-29T13:41:49;14.80;10.60
6018;DHT22;3037;51.068;13.780;2022-12-29T13:44:38;14.60;11.30
6018;DHT22;3037;51.068;13.780;2022-12-29T13:47:27;14.60;11.30
6018;DHT22;3037;51.068;13.780;2022-12-29T13:49:55;14.40;13.80
6018;DHT22;3037;51.068;13.780;2022-12-29T14:00:23;14.10;19.70
6018;DHT22;3037;51.068;13.780;2022-12-29T14:06:12;14.00;22.70
6018;DHT22;3037;51.068;13.780;2022-12-29T14:08:39;14.00;21.50
6018;DHT22;3037;51.068;13.780;2022-12-29T14:11:10;14.00;22.60
6018;DHT22;3037;51.068;13.780;2022-12-29T14:13:41;14.00;24.70
6018;DHT22;3037;51.068;13.780;2022-12-29T14:16:34;14.00;24.20
6018;DHT22;3037;51.068;13.780;2022-12-29T14:19:16;13.80;26.10
6018;DHT22;3037;51.068;13.780;2022-12-29T14:21:55;13.80;27.10
6018;DHT22;3037;51.068;13.780;2022-12-29T14:34:50;13.70;1.00
6018;DHT22;3037;51.068;13.780;2022-12-29T14:37:25;13.70;1.00
6018;DHT22;3037;51.068;13.780;2022-12-29T14:42:29;13.70;1.00
6018;DHT22;3037;51.068;13.780;2022-12-29T14:45:03;13.60;1.00
6018;DHT22;3037;51.068;13.780;2022-12-29T14:49:55;13.50;1.00
6018;DHT22;3037;51.068;13.780;2022-12-29T14:52:24;13.50;1.00
6018;DHT22;3037;51.068;13.780;2022-12-29T14:54:52;13.50;1.00
6018;DHT22;3037;51.068;13.780;2022-12-29T14:57:28;13.50;1.00
6018;DHT22;3037;51.068;13.780;2022-12-29T15:00:12;13.40;1.00
6018;DHT22;3037;51.068;13.780;2022-12-29T15:02:41;13.40;1.00
6018;DHT22;3037;51.068;13.780;2022-12-29T15:05:40;13.40;1.00
6018;DHT22;3037;51.068;13.780;2022-12-29T15:08:07;13.30;1.00
6018;DHT22;3037;51.068;13.780;2022-12-29T15:10:48;13.20;1.00
6018;DHT22;3037;51.068;13.780;2022-12-29T15:13:22;13.20;1.00
6018;DHT22;3037;51.068;13.780;2022-12-29T15:15:48;13.10;1.00
6018;DHT22;3037;51.068;13.780;2022-12-29T15:18:22;13.00;1.00
6018;DHT22;3037;51.068;13.780;2022-12-29T15:20:51;13.00;1.00
6018;DHT22;3037;51.068;13.780;2022-12-29T15:23:18;13.20;1.00
6018;DHT22;3037;51.068;13.780;2022-12-29T15:25:53;13.20;1.00
6018;DHT22;3037;51.068;13.780;2022-12-29T15:28:20;13.10;1.00
6018;DHT22;3037;51.068;13.780;2022-12-29T15:30:53;13.00;1.00
6018;DHT22;3037;51.068;13.780;2022-12-29T15:33:20;12.90;1.00
6018;DHT22;3037;51.068;13.780;2022-12-29T15:35:51;13.00;1.00
6018;DHT22;3037;51.068;13.780;2022-12-29T15:38:22;12.90;1.00
6018;DHT22;3037;51.068;13.780;2022-12-29T15:40:53;12.80;1.00
6018;DHT22;3037;51.068;13.780;2022-12-29T15:46:12;12.70;1.00
6018;DHT22;3037;51.068;13.780;2022-12-29T15:48:38;12.80;1.00
6018;DHT22;3037;51.068;13.780;2022-12-29T15:53:56;12.90;1.00
6018;DHT22;3037;51.068;13.780;2022-12-29T15:56:22;13.10;1.00
6018;DHT22;3037;51.068;13.780;2022-12-29T15:58:50;13.10;1.00
6018;DHT22;3037;51.068;13.780;2022-12-29T16:01:18;13.00;1.00
6018;DHT22;3037;51.068;13.780;2022-12-29T16:03:45;13.00;1.00
6018;DHT22;3037;51.068;13.780;2022-12-29T16:06:35;12.90;1.00
6018;DHT22;3037;51.068;13.780;2022-12-29T16:09:07;12.70;1.00
6018;DHT22;3037;51.068;13.780;2022-12-29T16:11:40;12.60;1.00
6018;DHT22;3037;51.068;13.780;2022-12-29T16:14:19;12.50;1.00
6018;DHT22;3037;51.068;13.780;2022-12-29T16:16:47;12.50;1.00
6018;DHT22;3037;51.068;13.780;2022-12-29T16:19:50;12.40;1.00
6018;DHT22;3037;51.068;13.780;2022-12-29T16:22:27;12.30;1.00
6018;DHT22;3037;51.068;13.780;2022-12-29T16:24:57;12.20;1.00
6018;DHT22;3037;51.068;13.780;2022-12-29T16:27:37;12.20;1.00
6018;DHT22;3037;51.068;13.780;2022-12-29T16:30:12;12.30;1.00
6018;DHT22;3037;51.068;13.780;2022-12-29T16:32:47;12.30;1.00
6018;DHT22;3037;51.068;13.780;2022-12-29T16:35:25;12.30;1.00
6018;DHT22;3037;51.068;13.780;2022-12-29T16:38:14;12.30;1.00
6018;DHT22;3037;51.068;13.780;2022-12-29T16:40:57;12.20;1.00
6018;DHT22;3037;51.068;13.780;2022-12-29T16:43:30;12.10;1.00
6018;DHT22;3037;51.068;13.780;2022-12-29T16:48:30;12.00;1.00
6018;DHT22;3037;51.068;13.780;2022-12-29T16:51:18;11.90;1.00
6018;DHT22;3037;51.068;13.780;2022-12-29T16:53:53;11.90;1.00
6018;DHT22;3037;51.068;13.780;2022-12-29T16:56:22;11.90;1.00
6018;DHT22;3037;51.068;13.780;2022-12-29T16:58:52;11.90;1.00
6018;DHT22;3037;51.068;13.780;2022-12-29T17:01:20;11.90;1.00
6018;DHT22;3037;51.068;13.780;2022-12-29T17:03:52;12.00;1.00
6018;DHT22;3037;51.068;13.780;2022-12-29T17:06:20;12.10;1.00
6018;DHT22;3037;51.068;13.780;2022-12-29T17:08:46;12.20;1.00
6018;DHT22;3037;51.068;13.780;2022-12-29T17:11:25;12.20;1.00
6018;DHT22;3037;51.068;13.780;2022-12-29T17:14:40;12.10;1.00
6018;DHT22;3037;51.068;13.780;2022-12-29T17:17:16;12.00;1.00
6018;DHT22;3037;51.068;13.780;2022-12-29T17:19:51;11.90;1.00
6018;DHT22;3037;51.068;13.780;2022-12-29T17:22:20;11.80;1.00
6018;DHT22;3037;51.068;13.780;2022-12-29T17:24:46;11.70;1.00
6018;DHT22;3037;51.068;13.780;2022-12-29T17:27:21;11.70;1.00
6018;DHT22;3037;51.068;13.780;2022-12-29T17:29:47;11.70;1.00
6018;DHT22;3037;51.068;13.780;2022-12-29T17:32:13;11.50;1.00
6018;DHT22;3037;51.068;13.780;2022-12-29T17:34:40;11.30;1.00
6018;DHT22;3037;51.068;13.780;2022-12-29T17:39:50;11.40;1.00
6018;DHT22;3037;51.068;13.780;2022-12-29T17:42:16;11.30;1.00
6018;DHT22;3037;51.068;13.780;2022-12-29T17:44:42;11.30;1.00
6018;DHT22;3037;51.068;13.780;2022-12-29T17:47:11;11.40;1.00
6018;DHT22;3037;51.068;13.780;2022-12-29T17:49:37;11.30;1.00